Time;durP1;ratioP1;P1;durP2;ratioP2;P2;SDS_P1;SDS_P2;PMS_P1;PMS_P2;Temp;Humidity;BMP_temperature;BMP_pressure;BME280_temperature;BME280_humidity;BME280_pressure;Samples;Min_cycle;Max_cycle;Signal;HPM_P1;HPM_P2
2022/03/21 00:07:27;;;;;;;1999.90;999.90;;;;;;;6.27;37.90;103212.00;15421587;28;20057;-59
2022/03/21 00:15:00;;;;;;;1999.90;999.90;;;;;;;6.33;37.87;103211.84;15432998;28;20070;-57
2022/03/21 00:22:32;;;;;;;1999.90;999.90;;;;;;;6.13;38.42;103200.31;15432592;28;20078;-57
2022/03/21 00:30:08;;;;;;;1999.90;999.90;;;;;;;5.79;38.96;103202.84;15431074;28;20039;-57
2022/03/21 00:37:43;;;;;;;1999.90;999.90;;;;;;;5.84;38.57;103209.59;15429983;28;20043;-60
2022/03/21 00:45:18;;;;;;;1999.90;999.90;;;;;;;6.05;38.78;103220.13;15414859;28;20067;-59
2022/03/21 00:52:52;;;;;;;1999.90;999.90;;;;;;;6.10;37.99;103217.44;15447229;28;20038;-59
2022/03/21 01:00:28;;;;;;;1999.90;999.90;;;;;;;6.21;36.80;103213.81;15436590;28;20568;-59
2022/03/21 01:08:02;;;;;;;1999.90;999.90;;;;;;;6.11;36.98;103223.84;15430996;28;20134;-59
2022/03/21 01:15:35;;;;;;;1999.90;999.90;;;;;;;6.25;36.71;103219.72;15428859;28;20043;-59
2022/03/21 01:23:07;;;;;;;1999.90;999.90;;;;;;;6.20;37.28;103212.13;15434281;28;20050;-60
2022/03/21 01:30:41;;;;;;;1999.90;999.90;;;;;;;5.97;37.47;103201.06;15439341;28;20038;-59
2022/03/21 01:38:13;;;;;;;1999.90;999.90;;;;;;;6.03;37.67;103202.84;15438984;28;20505;-60
2022/03/21 01:45:47;;;;;;;1999.90;999.90;;;;;;;5.63;37.92;103203.56;15437746;28;20560;-60
2022/03/21 02:01:11;;;;;;;1999.90;999.90;;;;;;;5.55;38.07;103180.91;15438846;28;20051;-60
2022/03/21 02:08:43;;;;;;;1999.90;999.90;;;;;;;5.55;38.26;103178.16;15438102;28;20134;-60
2022/03/21 02:16:17;;;;;;;1999.90;999.90;;;;;;;5.47;38.72;103182.09;15435964;28;20050;-59
2022/03/21 02:23:56;;;;;;;1999.90;999.90;;;;;;;5.17;39.59;103177.47;15436809;28;20045;-60
2022/03/21 02:31:32;;;;;;;1999.90;999.90;;;;;;;4.85;39.84;103159.44;15433861;28;20039;-59
2022/03/21 02:39:04;;;;;;;1999.90;999.90;;;;;;;5.02;39.55;103165.16;15436948;28;20046;-59
2022/03/21 02:46:38;;;;;;;1999.90;999.90;;;;;;;5.32;38.76;103178.97;15436212;28;20043;-60
2022/03/21 02:54:10;;;;;;;;;;;;;;;5.34;38.84;103172.09;15434549;28;20412;-59
2022/03/21 03:01:44;;;;;;;1999.90;999.90;;;;;;;5.19;38.94;103180.84;15435425;28;19926;-59
2022/03/21 03:09:16;;;;;;;1999.90;999.90;;;;;;;5.31;37.90;103174.47;15435294;28;20042;-56
2022/03/21 03:16:50;;;;;;;1999.90;999.90;;;;;;;5.28;37.47;103170.28;15432023;28;20554;-58
2022/03/21 03:24:25;;;;;;;1999.90;999.90;;;;;;;5.53;37.30;103172.00;15433371;28;20047;-58
2022/03/21 03:32:03;;;;;;;1999.90;999.90;;;;;;;4.64;40.19;103169.09;15432755;28;20051;-60
2022/03/21 03:39:36;;;;;;;1999.90;999.90;;;;;;;4.27;41.23;103173.81;15432099;28;20065;-59
2022/03/21 03:47:10;;;;;;;1999.90;999.90;;;;;;;3.91;41.93;103170.00;15430925;28;20085;-60
2022/03/21 03:54:42;;;;;;;1999.90;999.90;;;;;;;3.67;42.67;103179.19;15446556;28;20141;-57
2022/03/21 04:02:17;;;;;;;1999.90;999.90;;;;;;;3.64;43.24;103169.41;15431570;28;20504;-58
2022/03/21 04:09:52;;;;;;;1999.90;999.90;;;;;;;3.64;43.79;103168.56;15445154;28;20054;-59
2022/03/21 04:17:28;;;;;;;1999.90;999.90;;;;;;;3.60;43.76;103168.19;15427051;28;20082;-60
2022/03/21 04:25:01;;;;;;;1999.90;999.90;;;;;;;3.34;44.15;103169.28;15429668;28;20051;-58
2022/03/21 04:32:35;;;;;;;1999.90;999.90;;;;;;;3.68;43.42;103181.72;15430030;28;20435;-60
2022/03/21 04:40:09;;;;;;;1999.90;999.90;;;;;;;3.52;44.10;103176.75;15397155;28;20047;-59
2022/03/21 04:47:46;;;;;;;1999.90;999.90;;;;;;;3.45;44.52;103187.88;15410855;28;20038;-59
2022/03/21 04:55:18;;;;;;;1999.90;999.90;;;;;;;2.94;46.00;103192.72;15433599;28;20105;-58
2022/03/21 05:02:51;;;;;;;1999.90;999.90;;;;;;;3.00;46.15;103189.03;15440254;28;20070;-58
2022/03/21 05:10:23;;;;;;;1999.90;999.90;;;;;;;2.92;45.99;103194.81;15441156;28;20058;-59
2022/03/21 05:17:57;;;;;;;1999.90;999.90;;;;;;;3.00;46.09;103209.19;15438210;28;20054;-60
2022/03/21 05:41:12;;;;;;;1999.90;999.90;;;;;;;3.29;45.80;103209.66;15438390;28;20091;-58
2022/03/21 05:48:53;;;;;;;1999.90;999.90;;;;;;;3.38;45.33;103211.91;15437275;28;20129;-58
2022/03/21 05:56:28;;;;;;;1999.90;999.90;;;;;;;3.42;44.87;103210.38;15437444;28;20137;-59
2022/03/21 06:04:01;;;;;;;1999.90;999.90;;;;;;;3.61;44.45;103211.28;15438633;28;20047;-58
2022/03/21 06:11:34;;;;;;;1999.90;999.90;;;;;;;3.67;44.46;103226.13;15431502;28;20461;-58
2022/03/21 06:19:08;;;;;;;1999.90;999.90;;;;;;;4.15;43.24;103225.44;15427813;28;20389;-58
2022/03/21 06:26:40;;;;;;;1999.90;999.90;;;;;;;4.33;42.45;103240.09;15396440;28;20400;-59
2022/03/21 06:34:14;;;;;;;1999.90;999.90;;;;;;;4.87;41.61;103240.28;15424545;28;20043;-60
2022/03/21 06:41:46;;;;;;;1999.90;999.90;;;;;;;5.35;40.25;103242.16;15450987;28;20043;-62
2022/03/21 06:49:23;;;;;;;1999.90;999.90;;;;;;;6.50;38.84;103233.31;15462174;28;20039;-61
2022/03/21 06:56:55;;;;;;;1999.90;999.90;;;;;;;7.46;37.14;103248.25;15443559;28;20049;-62
2022/03/21 07:04:28;;;;;;;1999.90;999.90;;;;;;;7.73;35.97;103249.28;15421414;28;20130;-59
2022/03/21 07:12:00;;;;;;;1999.90;999.90;;;;;;;7.98;35.47;103254.41;15431615;28;20171;-61
2022/03/21 07:19:34;;;;;;;1999.90;999.90;;;;;;;8.20;34.51;103257.22;15431876;28;20074;-60
2022/03/21 07:27:08;;;;;;;1999.90;999.90;;;;;;;9.14;33.25;103248.72;15432610;28;20494;-60
2022/03/21 07:34:43;;;;;;;1999.90;999.90;;;;;;;9.20;32.86;103256.03;15420227;28;20043;-59
2022/03/21 07:42:16;;;;;;;1999.90;999.90;;;;;;;9.84;31.43;103250.50;15431037;23;20053;-61
2022/03/21 07:49:51;;;;;;;1999.90;999.90;;;;;;;10.28;31.69;103241.91;15424707;28;20185;-61
2022/03/21 07:57:27;;;;;;;1999.90;999.90;;;;;;;10.55;30.20;103241.78;15438816;28;20121;-61
2022/03/21 08:05:01;;;;;;;1999.90;999.90;;;;;;;10.69;30.76;103242.13;15441291;28;20043;-59
2022/03/21 08:12:34;;;;;;;1999.90;999.90;;;;;;;11.84;29.29;103253.00;15444788;28;20459;-60
2022/03/21 08:20:10;;;;;;;1999.90;999.90;;;;;;;12.61;27.00;103248.94;15435753;28;20116;-60
2022/03/21 08:28:01;;;;;;;1999.90;999.90;;;;;;;12.06;27.15;103242.34;15426795;28;20129;-61
2022/03/21 08:35:40;;;;;;;1999.90;999.90;;;;;;;13.01;25.91;103230.25;15442685;28;20043;-61
2022/03/21 08:43:12;;;;;;;1999.90;999.90;;;;;;;14.17;25.04;103241.69;15429782;28;20133;-59
2022/03/21 08:50:47;;;;;;;1999.90;999.90;;;;;;;13.17;25.92;103234.63;15431700;28;20062;-60
2022/03/21 08:58:19;;;;;;;1999.90;999.90;;;;;;;13.47;24.69;103224.38;15423853;28;20126;-60
2022/03/21 09:05:53;;;;;;;1999.90;999.90;;;;;;;13.39;24.43;103223.03;15442856;28;20043;-60
2022/03/21 09:13:25;;;;;;;;;;;;;;;13.82;24.25;103215.66;15386056;28;20142;-60
2022/03/21 09:20:59;;;;;;;1999.90;999.90;;;;;;;13.62;23.89;103212.19;15371204;28;19922;-58
2022/03/21 09:28:35;;;;;;;1999.90;999.90;;;;;;;14.19;23.92;103211.34;15368530;29;20130;-58
2022/03/21 09:36:09;;;;;;;1999.90;999.90;;;;;;;14.18;24.22;103203.25;15353854;29;20146;-60
2022/03/21 09:43:41;;;;;;;1999.90;999.90;;;;;;;15.50;22.93;103207.88;15422746;28;20072;-58
2022/03/21 09:51:20;;;;;;;1999.90;999.90;;;;;;;16.08;23.07;103212.28;15431371;28;20047;-60
2022/03/21 09:58:56;;;;;;;1999.90;999.90;;;;;;;15.76;22.70;103213.97;15445311;28;20051;-60
2022/03/21 10:06:32;;;;;;;1999.90;999.90;;;;;;;15.46;22.69;103212.47;15457577;28;20058;-59
2022/03/21 10:14:25;;;;;;;1999.90;999.90;;;;;;;16.19;21.63;103174.31;15451746;28;20070;-58
2022/03/21 10:22:05;;;;;;;1999.90;999.90;;;;;;;16.19;21.51;103185.56;15426447;28;20524;-60
2022/03/21 10:29:51;;;;;;;1999.90;999.90;;;;;;;16.09;22.11;103183.78;15450331;28;20496;-59
2022/03/21 10:37:25;;;;;;;1999.90;999.90;;;;;;;16.41;21.24;103190.47;15407830;28;20453;-61
2022/03/21 10:44:58;;;;;;;;;;;;;;;17.15;21.32;103182.66;15439829;28;20415;-61
2022/03/21 10:52:32;;;;;;;1999.90;999.90;;;;;;;17.25;20.57;103164.66;15408685;28;19966;-62
2022/03/21 11:00:14;;;;;;;;;;;;;;;17.24;20.80;103163.81;15450195;28;20038;-60
2022/03/21 11:07:48;;;;;;;1999.90;999.90;;;;;;;18.11;18.91;103170.84;15484539;28;19926;-60
2022/03/21 11:15:23;;;;;;;1999.90;999.90;;;;;;;18.47;18.90;103161.38;15485888;28;20042;-60
2022/03/21 11:22:58;;;;;;;1999.90;999.90;;;;;;;18.17;19.04;103171.56;15483799;28;20507;-60
2022/03/21 11:30:44;;;;;;;1999.90;999.90;;;;;;;18.29;19.08;103173.75;15466935;28;20050;-61
2022/03/21 11:38:25;;;;;;;1999.90;999.90;;;;;;;18.23;19.28;103146.78;15483557;28;20073;-61
2022/03/21 11:45:57;;;;;;;1999.90;999.90;;;;;;;19.56;18.04;103145.13;15482506;28;20752;-61
2022/03/21 11:53:32;;;;;;;1999.90;999.90;;;;;;;19.11;18.17;103130.53;15482032;28;20069;-61
2022/03/21 12:01:05;;;;;;;1999.90;999.90;;;;;;;19.63;18.07;103112.66;15478859;28;20070;-61
2022/03/21 12:08:48;;;;;;;1999.90;999.90;;;;;;;19.05;17.95;103120.53;15419499;28;20452;-59
2022/03/21 12:16:21;;;;;;;1999.90;999.90;;;;;;;18.51;18.18;103100.16;15422064;28;20046;-60
2022/03/21 12:24:15;;;;;;;1999.90;999.90;;;;;;;19.03;17.83;103097.38;15422439;28;20050;-61
2022/03/21 12:31:47;;;;;;;1999.90;999.90;;;;;;;19.69;17.51;103086.63;15437118;28;20142;-61
2022/03/21 12:39:21;;;;;;;1999.90;999.90;;;;;;;19.59;17.51;103079.34;15420798;28;20651;-61
2022/03/21 12:46:57;;;;;;;1999.90;999.90;;;;;;;20.43;17.61;103063.44;15421397;28;20101;-62
2022/03/21 12:54:31;;;;;;;1999.90;999.90;;;;;;;21.97;17.49;103069.91;15436176;28;20511;-61
2022/03/21 13:02:04;;;;;;;1999.90;999.90;;;;;;;21.17;16.41;103046.78;15446255;28;20134;-61
2022/03/21 13:17:49;;;;;;;1999.90;999.90;;;;;;;22.91;15.48;103049.75;15485358;28;20371;-61
2022/03/21 13:25:25;;;;;;;1999.90;999.90;;;;;;;22.16;16.28;103060.81;15489600;28;20380;-60
2022/03/21 13:32:57;;;;;;;1999.90;999.90;;;;;;;24.84;14.25;103048.97;15430536;28;20051;-61
2022/03/21 13:40:43;;;;;;;1999.90;999.90;;;;;;;21.65;15.71;103057.44;15480729;23;20054;-61
2022/03/21 13:48:35;;;;;;;1999.90;999.90;;;;;;;20.40;16.89;103049.06;15487335;28;20499;-61
2022/03/21 13:56:09;;;;;;;1999.90;999.90;;;;;;;17.73;18.90;103025.66;15433720;28;20078;-60
2022/03/21 14:03:41;;;;;;;1999.90;999.90;;;;;;;17.28;18.94;103025.72;15418547;28;20503;-61
2022/03/21 14:11:22;;;;;;;1999.90;999.90;;;;;;;16.68;19.37;103023.34;15358065;28;20043;-60
2022/03/21 14:18:55;;;;;;;1999.90;999.90;;;;;;;16.86;19.72;103022.28;15337134;29;20497;-61
2022/03/21 14:26:34;;;;;;;1999.90;999.90;;;;;;;16.89;19.00;103012.38;15365330;28;20505;-61
2022/03/21 14:34:07;;;;;;;1999.90;999.90;;;;;;;16.75;19.49;103003.97;15364694;29;20047;-61
2022/03/21 14:41:40;;;;;;;1999.90;999.90;;;;;;;16.89;19.76;103007.56;15333671;28;20043;-59
2022/03/21 14:49:12;;;;;;;1999.90;999.90;;;;;;;16.71;19.41;103000.13;15370137;28;20059;-59
2022/03/21 14:56:46;;;;;;;1999.90;999.90;;;;;;;16.52;20.52;102985.34;15360330;28;20426;-60
2022/03/21 15:04:18;;;;;;;;;;;;;;;16.18;19.89;102975.44;15349299;29;20044;-59
2022/03/21 15:11:52;;;;;;;1999.90;999.90;;;;;;;16.31;20.84;102968.94;15334892;28;19923;-59
2022/03/21 15:19:24;;;;;;;1999.90;999.90;;;;;;;15.88;20.86;102960.06;15366486;28;20093;-59
2022/03/21 15:26:58;;;;;;;1999.90;999.90;;;;;;;16.31;19.95;102962.47;15421266;28;20051;-61
2022/03/21 15:34:30;;;;;;;1999.90;999.90;;;;;;;16.06;20.00;102969.53;15392425;28;20411;-60
2022/03/21 15:42:05;;;;;;;1999.90;999.90;;;;;;;16.09;19.92;102961.28;15311425;28;20048;-61
2022/03/21 15:49:37;;;;;;;1999.90;999.90;;;;;;;15.94;19.56;102958.78;15349125;28;20449;-61
2022/03/21 15:57:11;;;;;;;1999.90;999.90;;;;;;;15.99;20.54;102969.94;15349521;28;20046;-60
2022/03/21 16:04:43;;;;;;;1999.90;999.90;;;;;;;16.08;20.39;102953.16;15341851;29;20062;-60
2022/03/21 16:12:16;;;;;;;1999.90;999.90;;;;;;;15.83;20.41;102955.38;15377084;28;20044;-59
2022/03/21 16:19:48;;;;;;;;;;;;;;;15.66;20.17;102955.19;15336363;29;20043;-61
2022/03/21 16:27:22;;;;;;;1999.90;999.90;;;;;;;15.69;20.46;102959.34;15340682;29;19923;-59
2022/03/21 16:34:54;;;;;;;1999.90;999.90;;;;;;;15.61;20.98;102955.28;15395531;28;20051;-60
2022/03/21 16:42:28;;;;;;;1999.90;999.90;;;;;;;15.57;21.24;102966.31;15361201;28;20043;-61
2022/03/21 16:50:01;;;;;;;1999.90;999.90;;;;;;;15.28;22.17;102968.59;15352345;28;20567;-60
2022/03/21 16:57:35;;;;;;;1999.90;999.90;;;;;;;14.88;22.91;102967.34;15343210;29;20047;-61
2022/03/21 17:05:10;;;;;;;1999.90;999.90;;;;;;;14.65;23.12;102975.63;15335428;29;20051;-60
2022/03/21 17:12:43;;;;;;;1999.90;999.90;;;;;;;14.29;23.60;102971.69;15367636;28;20106;-60
2022/03/21 17:28:07;;;;;;;1513.13;762.20;;;;;;;13.52;24.79;102969.06;15326937;29;20035;-62
2022/03/21 17:35:40;;;;;;;1999.90;999.90;;;;;;;13.31;24.63;102968.44;15372333;28;20043;-60
2022/03/21 17:43:13;;;;;;;33.95;31.05;;;;;;;12.97;26.24;102965.69;15343000;28;20049;-63
2022/03/21 17:50:46;;;;;;;41.22;37.75;;;;;;;12.95;26.38;102967.97;15338098;29;20047;-61
2022/03/21 17:58:19;;;;;;;1999.90;999.90;;;;;;;12.70;26.28;102983.00;15365890;28;20051;-59
2022/03/21 18:05:53;;;;;;;35.50;32.85;;;;;;;12.66;26.60;102991.19;15350232;28;20043;-60
2022/03/21 18:13:27;;;;;;;34.80;32.00;;;;;;;12.24;28.77;102990.91;15363233;29;20042;-61
2022/03/21 18:20:59;;;;;;;528.25;276.08;;;;;;;11.93;27.35;102993.88;15365633;28;20122;-59
2022/03/21 18:28:32;;;;;;;42.15;39.17;;;;;;;11.94;28.30;102991.91;15320897;29;20134;-60
2022/03/21 18:36:06;;;;;;;37.33;34.10;;;;;;;11.38;30.46;102995.75;15388291;28;20050;-60
2022/03/21 18:43:40;;;;;;;1999.90;999.90;;;;;;;10.91;31.45;103008.09;15348267;28;20054;-59
2022/03/21 18:51:13;;;;;;;1999.90;999.90;;;;;;;10.44;32.11;103004.72;15342636;29;20055;-60
2022/03/21 18:58:46;;;;;;;1999.90;999.90;;;;;;;10.49;32.43;103015.88;15359255;28;20102;-57
2022/03/21 19:06:19;;;;;;;1999.90;999.90;;;;;;;10.26;32.47;103006.91;15362783;28;20039;-60
2022/03/21 19:13:52;;;;;;;1999.90;999.90;;;;;;;10.17;32.73;103016.06;15360915;28;20546;-60
2022/03/21 19:21:26;;;;;;;;;;;;;;;10.10;33.72;103008.78;15373840;28;20135;-57
2022/03/21 19:29:00;;;;;;;;;;;;;;;10.02;33.75;103011.28;15354967;28;19923;-58
2022/03/21 19:36:33;;;;;;;1999.90;999.90;;;;;;;9.76;33.63;103008.38;15365686;28;19923;-60
2022/03/21 19:44:07;;;;;;;1999.90;999.90;;;;;;;9.61;34.91;103018.66;15347540;29;20507;-59
2022/03/21 19:51:39;;;;;;;1999.90;999.90;;;;;;;9.90;31.69;103022.69;15368465;28;20441;-61
2022/03/21 19:59:14;;;;;;;46.47;43.22;;;;;;;9.74;34.30;103032.91;15365501;28;20457;-61
2022/03/21 20:06:46;;;;;;;1999.90;999.90;;;;;;;9.44;33.39;103027.19;15359581;28;20039;-58
2022/03/21 20:14:20;;;;;;;50.33;46.67;;;;;;;9.40;35.33;103029.69;15349691;28;20035;-62
2022/03/21 20:21:52;;;;;;;42.60;38.85;;;;;;;8.93;35.35;103032.38;15358374;28;20055;-60
2022/03/21 20:29:26;;;;;;;42.53;39.00;;;;;;;8.84;36.38;103029.25;15321005;28;20052;-56
2022/03/21 20:36:58;;;;;;;1511.28;760.33;;;;;;;8.67;36.36;103028.56;15323314;29;20070;-61
2022/03/21 20:44:32;;;;;;;1999.90;999.90;;;;;;;8.64;35.96;103026.28;15342657;29;20046;-60
2022/03/21 20:52:05;;;;;;;1999.90;999.90;;;;;;;8.56;36.54;103024.84;15356837;28;20428;-59
2022/03/21 20:59:40;;;;;;;1999.90;999.90;;;;;;;8.35;37.06;103034.06;15329451;29;20082;-59
2022/03/21 21:07:13;;;;;;;1999.90;999.90;;;;;;;8.41;35.32;103038.56;15359396;28;20046;-61
2022/03/21 21:14:47;;;;;;;1999.90;999.90;;;;;;;8.36;35.52;103044.09;15320912;28;20497;-57
2022/03/21 21:22:19;;;;;;;;;;;;;;;8.29;35.87;103035.06;15337220;28;20540;-61
2022/03/21 21:29:53;;;;;;;1510.32;759.50;;;;;;;8.28;35.43;103036.19;15377014;28;19930;-61
2022/03/21 21:37:25;;;;;;;1999.90;999.90;;;;;;;8.38;36.77;103039.09;15371003;28;20059;-60
2022/03/21 21:44:58;;;;;;;1999.90;999.90;;;;;;;8.07;37.35;103035.94;15364253;28;20048;-59
2022/03/21 21:52:32;;;;;;;1999.90;999.90;;;;;;;7.82;39.44;103028.16;15376267;28;20047;-61
2022/03/21 22:00:06;;;;;;;1999.90;999.90;;;;;;;7.71;38.91;103042.13;15362516;28;20453;-60
2022/03/21 22:07:41;;;;;;;1999.90;999.90;;;;;;;7.56;39.18;103044.72;15365931;28;20047;-61
2022/03/21 22:15:15;;;;;;;1999.90;999.90;;;;;;;7.55;38.57;103048.59;15353164;29;20043;-61
2022/03/21 22:22:47;;;;;;;1999.90;999.90;;;;;;;7.42;39.19;103044.25;15367312;28;20057;-60
2022/03/21 22:30:21;;;;;;;1999.90;999.90;;;;;;;7.18;40.08;103044.44;15333005;29;20100;-62
2022/03/21 22:37:53;;;;;;;1999.90;999.90;;;;;;;6.97;40.28;103039.66;15351824;28;20043;-62
2022/03/21 22:53:16;;;;;;;1999.90;999.90;;;;;;;6.49;42.14;103043.00;15330945;28;20074;-61
2022/03/21 23:01:04;;;;;;;1999.90;999.90;;;;;;;6.27;43.59;103042.84;15365740;28;20042;-61
2022/03/21 23:08:37;;;;;;;1999.90;999.90;;;;;;;6.04;42.88;103047.41;15352417;28;20169;-61
2022/03/21 23:16:11;;;;;;;1999.90;999.90;;;;;;;5.93;43.52;103030.78;15331871;28;20043;-61
2022/03/21 23:23:44;;;;;;;1999.90;999.90;;;;;;;5.86;43.22;103033.69;15353057;28;20130;-61
2022/03/21 23:31:31;;;;;;;1999.90;999.90;;;;;;;5.75;43.13;103038.16;15387002;28;20516;-61
2022/03/21 23:39:04;;;;;;;1999.90;999.90;;;;;;;5.65;44.24;103031.56;15370980;29;20713;-60
2022/03/21 23:46:37;;;;;;;1999.90;999.90;;;;;;;5.53;44.11;103036.28;15328682;29;20047;-59
2022/03/21 23:54:09;;;;;;;1999.90;999.90;;;;;;;5.42;44.01;103043.53;15360370;28;20043;-61
